Time;durP1;ratioP1;P1;durP2;ratioP2;P2;SDS_P1;SDS_P2;PMS_P1;PMS_P2;Temp;Humidity;BMP_temperature;BMP_pressure;BME280_temperature;BME280_humidity;BME280_pressure;Samples;Min_cycle;Max_cycle;Signal;HPM_P1;HPM_P2
2021/03/14 00:00:16;;;;;;;6.13;2.88;;;5.30;99.90;;;;;;5051813;28;20670;-41
2021/03/14 00:02:44;;;;;;;2.15;1.35;;;5.20;99.90;;;;;;5051897;28;20204;-42
2021/03/14 00:05:12;;;;;;;2.22;1.40;;;5.30;99.90;;;;;;5051698;28;20273;-42
2021/03/14 00:07:40;;;;;;;2.25;1.50;;;5.30;99.90;;;;;;5052042;28;20204;-41
2021/03/14 00:10:08;;;;;;;1.10;1.00;;;5.30;99.90;;;;;;5051901;28;20243;-42
2021/03/14 00:12:35;;;;;;;1.63;0.90;;;5.30;99.90;;;;;;5051623;28;20289;-41
2021/03/14 00:15:03;;;;;;;3.45;1.10;;;5.40;99.90;;;;;;5051710;28;20232;-41
2021/03/14 00:17:30;;;;;;;3.05;1.27;;;5.40;99.90;;;;;;5051679;28;20243;-42
2021/03/14 00:19:58;;;;;;;1.65;1.13;;;5.40;99.90;;;;;;5051762;28;20265;-42
2021/03/14 00:22:25;;;;;;;1.50;1.15;;;5.40;99.90;;;;;;5051573;28;20262;-42
2021/03/14 00:24:52;;;;;;;1.30;1.08;;;5.50;99.90;;;;;;5051576;28;20299;-42
2021/03/14 00:27:20;;;;;;;2.75;1.10;;;5.50;99.90;;;;;;5053051;28;20698;-41
2021/03/14 00:29:47;;;;;;;1.52;0.95;;;5.60;99.90;;;;;;5051410;28;20251;-41
2021/03/14 00:32:13;;;;;;;4.53;0.95;;;5.60;99.90;;;;;;5051299;28;20537;-41
2021/03/14 00:34:41;;;;;;;2.05;1.00;;;5.60;99.90;;;;;;5051494;28;20299;-41
2021/03/14 00:37:10;;;;;;;2.40;1.10;;;5.70;99.90;;;;;;5051440;28;20298;-42
2021/03/14 00:39:37;;;;;;;1.23;1.00;;;5.60;99.90;;;;;;5051315;28;20304;-41
2021/03/14 00:42:05;;;;;;;1.05;0.95;;;5.60;99.90;;;;;;5051296;28;20234;-41
2021/03/14 00:44:32;;;;;;;2.70;1.10;;;5.70;99.90;;;;;;5051423;28;20243;-41
2021/03/14 00:46:58;;;;;;;1.20;1.10;;;5.70;99.90;;;;;;5050897;28;20347;-42
2021/03/14 00:49:26;;;;;;;5.07;1.33;;;5.80;99.90;;;;;;5051095;28;20638;-42
2021/03/14 00:51:53;;;;;;;1.05;0.95;;;5.80;99.90;;;;;;5050992;28;20227;-41
2021/03/14 00:54:22;;;;;;;3.35;3.05;;;5.70;99.90;;;;;;5051036;28;20299;-41
2021/03/14 00:56:48;;;;;;;3.83;1.02;;;5.70;99.90;;;;;;5051178;28;20299;-41
2021/03/14 00:59:15;;;;;;;1.90;1.10;;;5.70;99.90;;;;;;5051238;28;20540;-41
2021/03/14 01:01:42;;;;;;;1.42;0.80;;;5.60;99.90;;;;;;5052812;28;20204;-42
2021/03/14 01:04:09;;;;;;;3.25;2.10;;;5.60;99.90;;;;;;5055344;28;20222;-42
2021/03/14 01:06:36;;;;;;;3.20;1.73;;;5.60;99.90;;;;;;5055188;28;20291;-41
2021/03/14 01:09:04;;;;;;;1.90;1.65;;;5.50;99.90;;;;;;5055219;28;20308;-41
2021/03/14 01:11:32;;;;;;;3.97;2.40;;;5.50;99.90;;;;;;5054957;28;20323;-41
2021/03/14 01:13:59;;;;;;;2.50;1.50;;;5.50;99.90;;;;;;5055283;28;20386;-41
2021/03/14 01:16:26;;;;;;;2.65;1.30;;;5.40;99.90;;;;;;5053894;28;20212;-42
2021/03/14 01:18:53;;;;;;;2.22;1.05;;;5.40;99.90;;;;;;5055139;28;20239;-44
2021/03/14 01:21:20;;;;;;;4.60;2.65;;;5.40;99.90;;;;;;5054976;28;20379;-42
2021/03/14 01:23:47;;;;;;;3.85;1.88;;;5.40;99.90;;;;;;5054754;28;20220;-41
2021/03/14 01:26:15;;;;;;;4.38;1.65;;;5.40;99.90;;;;;;5054875;28;20243;-41
2021/03/14 01:28:43;;;;;;;2.05;1.33;;;5.40;99.90;;;;;;5055047;28;20247;-42
2021/03/14 01:31:10;;;;;;;2.08;1.40;;;5.30;99.90;;;;;;5054664;28;20278;-41
2021/03/14 01:33:37;;;;;;;5.38;3.58;;;5.30;99.90;;;;;;5054842;28;20508;-42
2021/03/14 01:36:04;;;;;;;4.05;1.80;;;5.40;99.90;;;;;;5054610;28;20243;-42
2021/03/14 01:38:31;;;;;;;3.38;2.05;;;5.30;99.90;;;;;;5054627;28;20243;-41
2021/03/14 01:40:58;;;;;;;0.60;0.60;;;5.30;99.90;;;;;;5054874;28;20306;-41
2021/03/14 01:43:28;;;;;;;0.90;0.80;;;5.20;99.90;;;;;;5054721;28;20239;-41
2021/03/14 01:45:56;;;;;;;1.35;1.25;;;5.20;99.90;;;;;;5054540;28;20208;-42
2021/03/14 01:48:25;;;;;;;1.80;1.20;;;5.20;99.90;;;;;;5054470;28;20244;-41
2021/03/14 01:50:53;;;;;;;1.80;1.27;;;5.20;99.90;;;;;;5054122;28;20216;-41
2021/03/14 01:53:21;;;;;;;1.30;1.08;;;5.20;99.90;;;;;;5054421;28;20294;-41
2021/03/14 01:55:48;;;;;;;1.77;1.45;;;5.10;99.90;;;;;;5054552;28;20311;-41
2021/03/14 01:58:18;;;;;;;3.15;1.95;;;5.10;99.90;;;;;;5054278;28;20639;-41
2021/03/14 02:00:45;;;;;;;0.95;0.82;;;5.10;99.90;;;;;;5054078;28;20215;-42
2021/03/14 02:03:14;;;;;;;3.47;2.08;;;5.10;99.90;;;;;;5054049;28;20204;-43
2021/03/14 02:05:42;;;;;;;7.53;4.88;;;5.10;99.90;;;;;;5054159;28;20562;-42
2021/03/14 02:08:09;;;;;;;1.85;1.38;;;5.10;99.90;;;;;;5054312;28;20235;-41
2021/03/14 02:10:37;;;;;;;8.70;5.22;;;5.10;99.90;;;;;;5054035;28;20295;-41
2021/03/14 02:13:08;;;;;;;3.67;1.27;;;5.10;99.90;;;;;;5052931;28;20223;-41
2021/03/14 02:15:38;;;;;;;2.78;1.30;;;5.20;99.90;;;;;;5053929;28;20208;-41
2021/03/14 02:18:07;;;;;;;2.00;1.45;;;5.20;99.90;;;;;;5053883;28;20218;-40
2021/03/14 02:20:37;;;;;;;2.38;0.68;;;5.20;99.90;;;;;;5053693;28;20372;-40
2021/03/14 02:23:20;;;;;;;1.65;1.23;;;5.20;99.90;;;;;;5053882;28;20209;-40
2021/03/14 02:25:50;;;;;;;1.85;0.82;;;5.20;99.90;;;;;;5053824;28;20258;-40
2021/03/14 02:28:20;;;;;;;1.35;0.95;;;5.20;99.90;;;;;;5053739;28;20231;-40
2021/03/14 02:30:48;;;;;;;2.10;0.70;;;5.30;99.90;;;;;;5053818;28;20208;-39
2021/03/14 02:33:19;;;;;;;0.90;0.90;;;5.20;99.90;;;;;;5053709;28;20319;-40
2021/03/14 02:35:47;;;;;;;1.63;0.77;;;5.20;99.90;;;;;;5054023;28;20208;-40
2021/03/14 02:38:15;;;;;;;1.20;0.50;;;5.20;99.90;;;;;;5053434;28;20659;-41
2021/03/14 02:40:43;;;;;;;1.27;0.80;;;5.20;99.90;;;;;;5053582;28;20208;-41
2021/03/14 02:43:11;;;;;;;1.33;0.80;;;5.20;99.90;;;;;;5053363;28;20262;-41
2021/03/14 02:45:40;;;;;;;0.70;0.70;;;5.20;99.90;;;;;;5053639;28;20258;-41
2021/03/14 02:48:10;;;;;;;0.88;0.55;;;5.20;99.90;;;;;;5053354;28;20326;-41
2021/03/14 02:50:38;;;;;;;0.70;0.70;;;5.20;99.90;;;;;;5053388;28;20204;-41
2021/03/14 02:53:07;;;;;;;2.25;1.13;;;5.20;99.90;;;;;;5053219;28;20238;-41
2021/03/14 02:55:35;;;;;;;2.15;0.73;;;5.20;99.90;;;;;;5053237;28;20239;-41
2021/03/14 02:58:04;;;;;;;1.23;0.77;;;5.20;99.90;;;;;;5053370;28;20630;-41
2021/03/14 03:00:34;;;;;;;0.80;0.57;;;5.10;99.90;;;;;;5053247;28;20640;-41
2021/03/14 03:03:04;;;;;;;2.08;0.90;;;5.20;99.90;;;;;;5053244;28;20235;-40
2021/03/14 03:05:32;;;;;;;0.95;0.60;;;5.20;99.90;;;;;;5053031;28;20580;-40
2021/03/14 03:08:00;;;;;;;0.60;0.60;;;5.20;99.90;;;;;;5052867;28;20565;-40
2021/03/14 03:10:31;;;;;;;0.93;0.77;;;5.20;99.90;;;;;;5053035;28;20212;-41
2021/03/14 03:13:00;;;;;;;1.95;0.68;;;5.20;99.90;;;;;;5052736;28;20322;-40
2021/03/14 03:15:28;;;;;;;0.52;0.52;;;5.20;99.90;;;;;;5052736;28;20430;-41
2021/03/14 03:17:56;;;;;;;0.88;0.82;;;5.20;99.90;;;;;;5052759;28;20243;-40
2021/03/14 03:20:26;;;;;;;0.70;0.60;;;5.20;99.90;;;;;;5052608;28;20217;-43
2021/03/14 03:22:54;;;;;;;0.50;0.50;;;5.30;99.90;;;;;;5053008;28;20238;-42
2021/03/14 03:25:22;;;;;;;1.02;0.82;;;5.30;99.90;;;;;;5052580;28;20239;-42
2021/03/14 03:27:49;;;;;;;0.50;0.50;;;5.30;99.90;;;;;;5053038;28;20212;-42
2021/03/14 03:30:18;;;;;;;0.68;0.55;;;5.20;99.90;;;;;;5052529;28;20291;-45
2021/03/14 03:32:46;;;;;;;0.73;0.50;;;5.20;99.90;;;;;;5052348;28;20262;-42
2021/03/14 03:35:16;;;;;;;1.33;0.65;;;5.20;99.90;;;;;;5052464;28;20208;-42
2021/03/14 03:37:44;;;;;;;0.60;0.60;;;5.10;99.90;;;;;;5052332;28;20250;-41
2021/03/14 03:40:15;;;;;;;0.63;0.63;;;5.10;99.90;;;;;;5052493;28;20266;-40
2021/03/14 03:42:48;;;;;;;0.70;0.70;;;5.10;99.90;;;;;;5052236;28;20269;-39
2021/03/14 03:45:16;;;;;;;1.33;0.68;;;5.00;99.90;;;;;;5052189;28;20211;-39
2021/03/14 03:47:44;;;;;;;0.73;0.68;;;5.00;99.90;;;;;;5052048;28;20286;-39
2021/03/14 03:50:14;;;;;;;0.60;0.50;;;5.00;99.90;;;;;;5052427;28;20626;-41
2021/03/14 03:52:45;;;;;;;0.82;0.60;;;5.00;99.90;;;;;;5051817;28;20672;-40
2021/03/14 03:55:14;;;;;;;0.60;0.57;;;4.90;99.90;;;;;;5052189;28;20207;-39
2021/03/14 03:57:42;;;;;;;1.02;0.70;;;4.90;99.90;;;;;;5052105;28;20215;-40
2021/03/14 04:00:12;;;;;;;0.52;0.52;;;4.80;99.90;;;;;;5051829;28;20643;-40
2021/03/14 04:02:40;;;;;;;0.50;0.50;;;4.80;99.90;;;;;;5052260;28;20235;-40
2021/03/14 04:05:10;;;;;;;0.60;0.60;;;4.70;99.90;;;;;;5052041;28;20212;-40
2021/03/14 04:07:38;;;;;;;0.73;0.65;;;4.70;99.90;;;;;;5052042;28;20239;-40
2021/03/14 04:10:09;;;;;;;0.63;0.63;;;4.60;99.90;;;;;;5051741;28;20311;-40
2021/03/14 04:12:38;;;;;;;1.75;0.68;;;4.60;99.90;;;;;;5051681;28;20311;-43
2021/03/14 04:15:09;;;;;;;1.33;0.70;;;4.60;99.90;;;;;;5052038;28;20203;-42
2021/03/14 04:17:36;;;;;;;0.55;0.55;;;4.60;99.90;;;;;;5051829;28;20670;-42
2021/03/14 04:20:07;;;;;;;0.63;0.60;;;4.60;99.90;;;;;;5051851;28;20686;-40
2021/03/14 04:22:36;;;;;;;2.05;0.70;;;4.60;99.90;;;;;;5051806;28;20251;-40
2021/03/14 04:25:04;;;;;;;0.50;0.50;;;4.50;99.90;;;;;;5051546;28;20303;-41
2021/03/14 04:27:33;;;;;;;3.30;2.17;;;4.50;99.90;;;;;;5051721;28;20239;-41
2021/03/14 04:30:01;;;;;;;2.78;1.67;;;4.50;99.90;;;;;;5051770;28;20243;-41
2021/03/14 04:32:28;;;;;;;2.70;1.38;;;4.50;99.90;;;;;;5051424;28;20649;-40
2021/03/14 04:34:56;;;;;;;0.68;0.60;;;4.40;99.90;;;;;;5053758;28;20227;-40
2021/03/14 04:37:24;;;;;;;0.70;0.70;;;4.40;99.90;;;;;;5050885;28;20625;-41
2021/03/14 04:39:52;;;;;;;0.65;0.65;;;4.30;99.90;;;;;;5053061;28;20291;-40
2021/03/14 04:42:21;;;;;;;0.40;0.40;;;4.30;99.90;;;;;;5051653;28;20203;-42
2021/03/14 04:44:50;;;;;;;0.55;0.52;;;4.30;99.90;;;;;;5052051;28;20211;-42
2021/03/14 04:47:18;;;;;;;0.50;0.50;;;4.20;99.90;;;;;;5051436;28;20330;-41
2021/03/14 04:49:45;;;;;;;0.70;0.50;;;4.20;99.90;;;;;;5051453;28;20208;-42
2021/03/14 04:52:13;;;;;;;0.50;0.50;;;4.20;99.90;;;;;;5051352;28;20230;-40
2021/03/14 04:54:42;;;;;;;1.58;0.60;;;4.20;99.90;;;;;;5051562;28;20666;-40
2021/03/14 04:57:10;;;;;;;0.40;0.40;;;4.10;99.90;;;;;;5051372;28;20239;-41
2021/03/14 04:59:38;;;;;;;0.40;0.40;;;4.10;99.90;;;;;;5051360;28;20304;-43
2021/03/14 05:02:07;;;;;;;0.40;0.40;;;4.10;99.90;;;;;;5051089;28;20204;-44
2021/03/14 05:04:35;;;;;;;0.40;0.40;;;4.10;99.90;;;;;;5051148;28;20254;-42
2021/03/14 05:07:02;;;;;;;0.70;0.70;;;4.10;99.90;;;;;;5050842;28;20650;-42
2021/03/14 05:09:30;;;;;;;0.98;0.90;;;4.10;99.90;;;;;;5051383;28;20208;-42
2021/03/14 05:11:58;;;;;;;2.25;1.58;;;4.10;99.90;;;;;;5051128;28;20712;-42
2021/03/14 05:14:26;;;;;;;0.80;0.80;;;4.00;99.90;;;;;;5051233;28;20243;-42
2021/03/14 05:16:53;;;;;;;0.85;0.85;;;4.00;99.90;;;;;;5051177;28;20239;-41
2021/03/14 05:19:21;;;;;;;1.25;0.75;;;4.00;99.90;;;;;;5051106;28;20606;-41
2021/03/14 05:21:57;;;;;;;0.90;0.90;;;4.00;99.90;;;;;;5051347;28;20204;-40
2021/03/14 05:24:25;;;;;;;0.90;0.90;;;3.90;99.90;;;;;;5051231;28;20215;-41
2021/03/14 05:26:52;;;;;;;1.25;0.80;;;4.00;99.90;;;;;;5051163;28;20289;-41
2021/03/14 05:29:20;;;;;;;0.77;0.68;;;3.90;99.90;;;;;;5050966;28;20211;-40
2021/03/14 05:31:47;;;;;;;0.80;0.80;;;3.90;99.90;;;;;;5050930;28;20220;-41
2021/03/14 05:34:16;;;;;;;1.70;1.10;;;3.90;99.90;;;;;;5051248;28;20239;-42
2021/03/14 05:36:45;;;;;;;1.15;1.05;;;3.90;99.90;;;;;;5051188;28;20247;-41
2021/03/14 05:39:14;;;;;;;1.25;0.80;;;3.90;99.90;;;;;;5051094;28;20227;-41
2021/03/14 05:41:43;;;;;;;0.80;0.80;;;4.00;99.90;;;;;;5051119;28;20236;-41
2021/03/14 05:44:11;;;;;;;1.45;0.70;;;4.00;99.90;;;;;;5050872;28;20290;-41
2021/03/14 05:46:38;;;;;;;1.00;0.90;;;3.90;99.90;;;;;;5050708;28;20239;-41
2021/03/14 05:49:07;;;;;;;0.85;0.80;;;3.90;99.90;;;;;;5053114;28;20208;-41
2021/03/14 05:51:35;;;;;;;0.77;0.77;;;3.90;99.90;;;;;;5054523;28;20231;-42
2021/03/14 05:54:03;;;;;;;1.50;0.75;;;3.90;99.90;;;;;;5054417;28;20290;-41
2021/03/14 05:56:32;;;;;;;0.70;0.70;;;3.90;99.90;;;;;;5054456;28;20232;-41
2021/03/14 05:59:01;;;;;;;0.70;0.68;;;3.90;99.90;;;;;;5054198;28;20289;-41
2021/03/14 06:01:30;;;;;;;0.55;0.55;;;4.00;99.90;;;;;;5054310;28;20663;-43
2021/03/14 06:03:58;;;;;;;0.85;0.50;;;4.00;99.90;;;;;;5054393;28;20208;-42
2021/03/14 06:06:26;;;;;;;4.22;2.58;;;4.00;99.90;;;;;;5054266;28;20318;-40
2021/03/14 06:08:53;;;;;;;0.75;0.75;;;4.10;99.90;;;;;;5054055;28;20583;-40
2021/03/14 06:11:21;;;;;;;0.65;0.65;;;4.20;99.90;;;;;;5053933;28;20218;-42
2021/03/14 06:13:48;;;;;;;2.55;1.40;;;4.20;99.90;;;;;;5054241;28;20238;-40
2021/03/14 06:16:15;;;;;;;0.90;0.60;;;4.30;99.90;;;;;;5054154;28;20622;-40
2021/03/14 06:18:43;;;;;;;0.60;0.60;;;4.30;99.90;;;;;;5055705;28;20573;-40
2021/03/14 06:21:19;;;;;;;0.60;0.60;;;4.30;99.90;;;;;;5053863;28;20290;-40
2021/03/14 06:23:59;;;;;;;0.70;0.70;;;4.30;99.90;;;;;;5053710;28;20729;-40
2021/03/14 06:26:37;;;;;;;0.70;0.70;;;4.30;99.90;;;;;;5053776;28;20692;-40
2021/03/14 06:29:26;;;;;;;0.98;0.77;;;4.30;99.90;;;;;;5053811;28;20247;-40
2021/03/14 06:31:57;;;;;;;0.77;0.77;;;4.30;99.90;;;;;;5053794;28;20310;-41
2021/03/14 06:34:33;;;;;;;0.75;0.75;;;4.30;99.90;;;;;;5053585;28;20208;-41
2021/03/14 06:37:08;;;;;;;0.98;0.85;;;4.30;99.90;;;;;;5053802;28;20246;-41
2021/03/14 06:39:37;;;;;;;1.05;0.80;;;4.30;99.90;;;;;;5053574;28;20303;-41
2021/03/14 06:42:05;;;;;;;1.00;0.90;;;4.30;99.90;;;;;;5053432;28;20647;-40
2021/03/14 06:44:46;;;;;;;3.67;3.03;;;4.30;99.90;;;;;;5053325;28;20208;-41
2021/03/14 06:47:13;;;;;;;3.10;1.80;;;4.30;99.90;;;;;;5053407;28;20274;-40
2021/03/14 06:49:40;;;;;;;3.03;1.63;;;4.30;99.90;;;;;;5053403;28;20244;-40
2021/03/14 06:52:09;;;;;;;4.60;2.95;;;4.30;99.90;;;;;;5053093;28;20268;-40
2021/03/14 06:54:37;;;;;;;1.98;1.52;;;4.30;99.90;;;;;;5053770;28;20255;-40
2021/03/14 06:57:11;;;;;;;3.42;2.03;;;4.30;99.90;;;;;;5053017;28;20208;-40
2021/03/14 06:59:39;;;;;;;1.13;0.93;;;4.30;99.90;;;;;;5052373;28;20216;-40
2021/03/14 07:02:11;;;;;;;1.02;0.98;;;4.30;99.90;;;;;;5052869;28;20223;-40
2021/03/14 07:04:44;;;;;;;0.80;0.80;;;4.30;99.90;;;;;;5053026;28;20320;-40
2021/03/14 07:07:20;;;;;;;0.90;0.80;;;4.30;99.90;;;;;;5052667;28;20300;-40
2021/03/14 07:09:51;;;;;;;2.47;1.40;;;4.30;99.90;;;;;;5052797;28;20307;-40
2021/03/14 07:12:22;;;;;;;1.63;1.40;;;4.30;99.90;;;;;;5052637;28;20219;-40
2021/03/14 07:14:50;;;;;;;1.10;1.00;;;4.30;99.90;;;;;;5052805;28;20261;-40
2021/03/14 07:17:34;;;;;;;2.35;1.98;;;4.30;99.90;;;;;;5052569;28;20285;-40
2021/03/14 07:20:07;;;;;;;1.92;1.70;;;4.30;99.90;;;;;;5052494;28;20216;-40
2021/03/14 07:22:34;;;;;;;1.60;1.38;;;4.30;99.90;;;;;;5052185;28;20659;-40
2021/03/14 07:25:01;;;;;;;1.38;1.27;;;4.30;99.90;;;;;;5052671;28;20234;-39
2021/03/14 07:27:29;;;;;;;1.45;0.70;;;4.30;99.90;;;;;;5052280;28;20693;-40
2021/03/14 07:29:58;;;;;;;0.90;0.90;;;4.40;99.90;;;;;;5052080;28;20637;-41
2021/03/14 07:32:26;;;;;;;1.00;0.88;;;4.40;99.90;;;;;;5052000;28;20231;-41
2021/03/14 07:34:53;;;;;;;0.60;0.60;;;4.50;99.90;;;;;;5052210;28;20227;-41
2021/03/14 07:37:21;;;;;;;0.63;0.60;;;4.50;99.90;;;;;;5052322;28;20231;-41
2021/03/14 07:39:48;;;;;;;5.57;3.78;;;4.40;99.90;;;;;;5052328;28;20299;-41
2021/03/14 07:42:20;;;;;;;4.05;3.50;;;4.40;99.90;;;;;;5052408;28;20256;-41
2021/03/14 07:44:48;;;;;;;1.52;1.20;;;4.40;99.90;;;;;;5052160;28;20212;-40
2021/03/14 07:47:17;;;;;;;5.82;3.95;;;4.40;99.90;;;;;;5051777;28;20295;-41
2021/03/14 07:49:49;;;;;;;1.98;1.55;;;4.40;99.90;;;;;;5052064;28;20230;-41
2021/03/14 07:52:23;;;;;;;2.70;2.17;;;4.50;99.90;;;;;;5051944;28;20234;-40
2021/03/14 07:54:55;;;;;;;1.40;1.13;;;4.50;99.90;;;;;;5052118;28;20239;-40
2021/03/14 07:57:24;;;;;;;1.52;1.20;;;4.60;99.90;;;;;;5051866;28;20299;-40
2021/03/14 07:59:52;;;;;;;1.30;1.20;;;4.60;99.90;;;;;;5051903;28;20667;-41
2021/03/14 08:02:31;;;;;;;1.05;1.00;;;4.70;99.90;;;;;;5051933;28;20212;-41
2021/03/14 08:05:00;;;;;;;1.42;1.10;;;4.80;99.90;;;;;;5051743;28;20242;-41
2021/03/14 08:07:48;;;;;;;1.33;1.23;;;4.90;99.90;;;;;;5051855;28;20235;-39
2021/03/14 08:10:39;;;;;;;1.25;1.15;;;4.90;99.90;;;;;;5051212;28;20674;-44
2021/03/14 08:13:13;;;;;;;1.02;1.00;;;4.90;99.90;;;;;;5051719;28;20228;-45
2021/03/14 08:15:42;;;;;;;1.30;1.20;;;4.90;99.90;;;;;;5051264;28;20302;-46
2021/03/14 08:18:35;;;;;;;2.15;1.70;;;5.00;99.90;;;;;;5051298;28;20208;-43
2021/03/14 08:21:03;;;;;;;0.77;0.77;;;5.10;99.90;;;;;;5051386;28;20738;-41
2021/03/14 08:23:40;;;;;;;0.90;0.90;;;5.10;99.90;;;;;;5051311;28;20299;-41
2021/03/14 08:26:16;;;;;;;0.95;0.80;;;5.10;99.90;;;;;;5051222;28;20208;-43
2021/03/14 08:28:53;;;;;;;1.50;1.17;;;5.20;99.90;;;;;;5051525;28;20214;-41
2021/03/14 08:31:47;;;;;;;1.42;1.20;;;5.30;99.90;;;;;;5051834;28;20211;-42
2021/03/14 08:34:38;;;;;;;1.77;1.02;;;5.40;99.90;;;;;;5051029;28;20234;-40
2021/03/14 08:37:22;;;;;;;1.65;1.45;;;5.50;99.90;;;;;;5050953;28;20223;-40
2021/03/14 08:39:49;;;;;;;1.48;1.30;;;5.60;99.90;;;;;;5051643;28;20294;-40
2021/03/14 08:42:16;;;;;;;1.42;1.33;;;5.60;99.90;;;;;;5051300;28;20225;-42
2021/03/14 08:44:45;;;;;;;1.52;1.10;;;5.60;99.90;;;;;;5052453;28;20235;-41
2021/03/14 08:47:16;;;;;;;1.30;1.20;;;5.70;99.90;;;;;;5053371;28;20633;-41
2021/03/14 08:49:46;;;;;;;2.65;1.17;;;5.70;99.90;;;;;;5051135;28;20211;-41
2021/03/14 08:52:14;;;;;;;2.60;2.20;;;5.70;99.90;;;;;;5051171;28;20644;-39
2021/03/14 08:54:43;;;;;;;2.10;1.42;;;5.80;99.90;;;;;;5051075;28;20621;-41
2021/03/14 08:57:11;;;;;;;3.55;1.35;;;5.80;99.90;;;;;;5050734;28;20742;-40
2021/03/14 08:59:46;;;;;;;2.47;1.60;;;5.90;99.90;;;;;;5050742;28;20248;-41
2021/03/14 09:02:24;;;;;;;1.40;1.30;;;5.90;99.90;;;;;;5050901;28;20208;-43
2021/03/14 09:04:52;;;;;;;1.67;1.27;;;6.00;99.90;;;;;;5050970;28;20250;-41
2021/03/14 09:07:20;;;;;;;3.53;1.20;;;5.90;99.90;;;;;;5051166;28;20212;-40
2021/03/14 09:09:47;;;;;;;1.05;0.95;;;5.80;99.90;;;;;;5051171;28;20235;-41
2021/03/14 09:12:16;;;;;;;1.48;1.10;;;5.90;99.90;;;;;;5050936;28;20323;-40
2021/03/14 09:14:43;;;;;;;3.50;1.20;;;5.90;99.90;;;;;;5050797;28;20587;-40
2021/03/14 09:17:13;;;;;;;1.63;1.40;;;6.10;99.90;;;;;;5051206;28;20302;-40
2021/03/14 09:19:43;;;;;;;3.15;1.77;;;6.00;99.90;;;;;;5050795;28;20639;-41
2021/03/14 09:22:16;;;;;;;2.55;1.50;;;5.90;99.90;;;;;;5051697;28;20211;-40
2021/03/14 09:24:56;;;;;;;2.45;1.90;;;5.80;99.90;;;;;;5054600;28;20215;-41
2021/03/14 09:27:24;;;;;;;3.60;2.47;;;5.70;99.90;;;;;;5054735;28;20353;-40
2021/03/14 09:29:56;;;;;;;7.53;1.40;;;5.70;99.90;;;;;;5054479;28;20247;-41
2021/03/14 09:32:30;;;;;;;4.35;1.60;;;5.70;99.90;;;;;;5054564;28;20212;-41
2021/03/14 09:35:19;;;;;;;2.03;1.33;;;5.90;99.90;;;;;;5054886;28;20219;-41
2021/03/14 09:37:49;;;;;;;2.47;1.60;;;6.10;99.90;;;;;;5054363;28;20231;-41
2021/03/14 09:40:22;;;;;;;3.80;1.40;;;6.10;99.90;;;;;;5054588;28;20239;-41
2021/03/14 09:42:51;;;;;;;2.60;1.30;;;6.10;99.90;;;;;;5054425;28;20632;-41
2021/03/14 09:45:20;;;;;;;2.88;1.38;;;6.10;99.90;;;;;;5054270;28;20295;-41
2021/03/14 09:48:08;;;;;;;3.35;1.40;;;6.00;99.90;;;;;;5053821;28;20784;-41
2021/03/14 09:50:43;;;;;;;2.38;1.73;;;5.90;99.90;;;;;;5054141;28;20341;-41
2021/03/14 09:53:11;;;;;;;2.63;2.28;;;5.90;99.90;;;;;;5053974;28;20258;-41
2021/03/14 09:55:39;;;;;;;4.05;2.15;;;5.80;99.90;;;;;;5054065;28;20239;-42
2021/03/14 09:58:11;;;;;;;3.75;2.50;;;5.90;99.90;;;;;;5054246;28;20310;-43
2021/03/14 10:00:38;;;;;;;2.92;1.30;;;5.90;99.60;;;;;;5053979;28;20303;-41
2021/03/14 10:03:08;;;;;;;2.85;1.63;;;6.00;99.30;;;;;;5054172;28;20207;-42
2021/03/14 10:05:41;;;;;;;6.60;1.48;;;6.00;99.00;;;;;;5054012;28;20632;-42
2021/03/14 10:08:09;;;;;;;3.38;1.45;;;6.00;98.30;;;;;;5053927;28;20244;-40
2021/03/14 10:10:37;;;;;;;3.83;1.70;;;6.00;98.60;;;;;;5053894;28;20212;-40
2021/03/14 10:13:18;;;;;;;3.00;1.38;;;6.10;98.00;;;;;;5053982;28;20625;-40
2021/03/14 10:15:49;;;;;;;1.38;1.15;;;6.20;97.90;;;;;;5053894;28;20244;-41
2021/03/14 10:18:19;;;;;;;2.13;1.27;;;6.40;97.90;;;;;;5053976;28;20208;-41
2021/03/14 10:20:47;;;;;;;3.67;1.40;;;6.60;97.10;;;;;;5053545;28;20742;-40
2021/03/14 10:23:14;;;;;;;3.45;2.00;;;6.80;97.20;;;;;;5053686;28;20766;-40
2021/03/14 10:25:42;;;;;;;2.92;1.42;;;7.00;96.70;;;;;;5054160;28;20211;-42
2021/03/14 10:28:12;;;;;;;1.90;1.23;;;7.10;95.70;;;;;;5053233;28;20219;-40
2021/03/14 10:30:42;;;;;;;1.05;0.93;;;7.10;95.50;;;;;;5053281;28;20212;-41
2021/03/14 10:33:11;;;;;;;2.38;2.05;;;7.10;94.90;;;;;;5053154;28;20224;-40
2021/03/14 10:35:39;;;;;;;3.35;1.92;;;7.20;94.50;;;;;;5052493;28;20239;-40
2021/03/14 10:38:17;;;;;;;1.60;1.35;;;7.30;94.60;;;;;;5053081;28;20712;-41
2021/03/14 10:40:45;;;;;;;2.40;1.17;;;7.30;94.00;;;;;;5053354;28;20290;-41
2021/03/14 10:43:22;;;;;;;1.52;1.10;;;7.10;94.80;;;;;;5053110;28;20295;-41
2021/03/14 10:45:51;;;;;;;3.22;1.20;;;7.00;94.10;;;;;;5053103;28;20686;-41
2021/03/14 10:48:24;;;;;;;2.55;1.20;;;6.90;94.90;;;;;;5052499;28;20385;-40
2021/03/14 10:50:59;;;;;;;3.00;1.60;;;6.80;94.80;;;;;;5053083;28;20243;-40
2021/03/14 10:53:27;;;;;;;1.58;1.08;;;6.80;94.50;;;;;;5052899;28;20329;-40
2021/03/14 10:56:05;;;;;;;2.47;1.38;;;6.90;93.70;;;;;;5053046;28;20381;-40
2021/03/14 10:58:37;;;;;;;2.28;0.88;;;6.90;93.30;;;;;;5053981;28;20250;-40
2021/03/14 11:01:06;;;;;;;3.00;1.02;;;6.90;92.60;;;;;;5072564;28;20287;-40
2021/03/14 11:03:37;;;;;;;0.75;0.75;;;6.90;92.40;;;;;;5072629;28;20295;-40
2021/03/14 11:06:13;;;;;;;1.63;1.23;;;7.00;91.90;;;;;;5072922;28;20243;-40
2021/03/14 11:08:51;;;;;;;5.30;4.20;;;7.10;91.70;;;;;;5072527;28;20264;-40
2021/03/14 11:11:19;;;;;;;4.75;2.70;;;7.10;91.10;;;;;;5072459;28;20298;-40
2021/03/14 11:13:46;;;;;;;1.25;0.95;;;7.10;91.60;;;;;;5072484;28;20230;-41
2021/03/14 11:16:14;;;;;;;2.42;2.13;;;7.00;91.60;;;;;;5072554;28;20693;-41
2021/03/14 11:18:41;;;;;;;3.80;2.05;;;7.00;91.20;;;;;;5072401;28;20669;-41
2021/03/14 11:21:09;;;;;;;0.98;0.88;;;7.00;91.60;;;;;;5072445;28;20289;-41
2021/03/14 11:23:36;;;;;;;3.00;1.20;;;7.00;91.50;;;;;;5072040;28;20322;-41
2021/03/14 11:26:15;;;;;;;1.05;0.93;;;7.10;91.50;;;;;;5072319;28;20215;-41
2021/03/14 11:28:45;;;;;;;1.90;1.00;;;7.10;91.30;;;;;;5072433;28;20238;-42
2021/03/14 11:31:12;;;;;;;1.95;1.45;;;7.20;91.30;;;;;;5072163;28;20253;-41
2021/03/14 11:33:39;;;;;;;1.95;1.20;;;7.30;91.20;;;;;;5072156;28;20227;-42
2021/03/14 11:36:07;;;;;;;2.00;1.13;;;7.30;91.00;;;;;;5072008;28;20290;-41
2021/03/14 11:38:34;;;;;;;2.45;1.55;;;7.30;90.80;;;;;;5071768;28;20306;-40
2021/03/14 11:41:01;;;;;;;1.75;1.05;;;7.20;91.10;;;;;;5072129;28;20291;-41
2021/03/14 11:43:29;;;;;;;2.45;0.98;;;7.20;91.10;;;;;;5072098;28;20208;-41
2021/03/14 11:45:56;;;;;;;2.55;1.05;;;7.20;91.20;;;;;;5071582;28;20250;-43
2021/03/14 11:48:23;;;;;;;1.35;1.00;;;7.20;91.10;;;;;;5071726;28;20239;-42
2021/03/14 11:50:50;;;;;;;2.60;1.30;;;7.20;91.40;;;;;;5071849;28;20207;-43
2021/03/14 11:53:17;;;;;;;4.22;1.77;;;7.20;91.50;;;;;;5071638;28;20227;-42
2021/03/14 11:55:44;;;;;;;2.08;1.30;;;7.20;91.80;;;;;;5071825;28;20753;-42
2021/03/14 11:58:11;;;;;;;1.50;1.00;;;7.20;92.00;;;;;;5071998;28;20214;-42
2021/03/14 12:00:39;;;;;;;2.60;1.70;;;7.30;92.00;;;;;;5071554;28;20678;-40
2021/03/14 12:03:06;;;;;;;2.47;1.65;;;7.20;91.90;;;;;;5071968;28;20636;-42
2021/03/14 12:05:33;;;;;;;3.08;2.03;;;7.20;92.40;;;;;;5071518;28;20211;-40
2021/03/14 12:08:00;;;;;;;3.13;1.20;;;7.30;92.70;;;;;;5071810;28;20207;-40
2021/03/14 12:10:27;;;;;;;2.42;1.45;;;7.50;92.70;;;;;;5071794;28;20215;-40
2021/03/14 12:12:54;;;;;;;1.20;1.10;;;7.70;91.90;;;;;;5071387;28;20323;-42
2021/03/14 12:15:22;;;;;;;1.35;1.20;;;7.80;91.90;;;;;;5071632;28;20207;-42
2021/03/14 12:17:50;;;;;;;1.00;0.90;;;7.90;91.20;;;;;;5071603;28;20222;-41
2021/03/14 12:20:17;;;;;;;1.63;1.00;;;7.90;90.30;;;;;;5071513;28;20692;-41
2021/03/14 12:22:44;;;;;;;1.83;1.08;;;7.80;90.30;;;;;;5071503;28;20268;-41
2021/03/14 12:25:12;;;;;;;2.20;1.08;;;7.90;90.80;;;;;;5071376;28;20298;-41
2021/03/14 12:27:39;;;;;;;1.23;0.90;;;8.20;90.80;;;;;;5071293;28;20264;-41
2021/03/14 12:30:07;;;;;;;14.80;5.32;;;8.60;90.30;;;;;;5071336;28;20249;-42
2021/03/14 12:32:34;;;;;;;2.42;1.50;;;8.70;90.10;;;;;;5071171;28;20219;-44
2021/03/14 12:35:02;;;;;;;2.33;1.30;;;8.70;89.90;;;;;;5071417;28;20611;-42
2021/03/14 12:37:29;;;;;;;3.33;1.40;;;8.60;90.00;;;;;;5071181;28;20635;-42
2021/03/14 12:39:56;;;;;;;1.88;1.00;;;8.40;90.20;;;;;;5071359;28;20211;-41
2021/03/14 12:42:23;;;;;;;2.13;1.27;;;8.30;90.30;;;;;;5071255;28;20235;-43
2021/03/14 12:44:50;;;;;;;3.03;2.35;;;8.20;89.90;;;;;;5071230;28;20204;-41
2021/03/14 12:47:18;;;;;;;2.05;1.40;;;8.10;88.60;;;;;;5070878;28;20235;-41
2021/03/14 12:49:45;;;;;;;1.55;1.40;;;7.80;88.50;;;;;;5071074;28;20207;-41
2021/03/14 12:52:13;;;;;;;1.75;1.13;;;7.70;87.80;;;;;;5071271;28;20306;-40
2021/03/14 12:54:39;;;;;;;1.58;1.35;;;7.50;88.10;;;;;;5070974;28;20235;-41
2021/03/14 12:57:07;;;;;;;2.30;1.20;;;7.40;89.10;;;;;;5072334;28;20249;-41
2021/03/14 12:59:33;;;;;;;2.67;2.10;;;7.30;90.00;;;;;;5075129;28;20281;-41
2021/03/14 13:02:00;;;;;;;1.15;1.05;;;7.30;90.20;;;;;;5075140;28;20207;-41
2021/03/14 13:04:28;;;;;;;1.80;0.98;;;7.40;90.10;;;;;;5075022;28;20261;-41
2021/03/14 13:06:55;;;;;;;5.40;1.20;;;7.50;90.20;;;;;;5075388;28;20669;-41
2021/03/14 13:09:23;;;;;;;2.03;1.00;;;7.90;90.20;;;;;;5074762;28;20207;-43